sensor_id;sensor_type;location;lat;lon;timestamp;pressure;altitude;pressure_sealevel;temperature;humidity
32875;BME280;40468;42.128;24.750;2024-02-23T00:00:13;99660.16;;;7.65;61.44
32875;BME280;40468;42.128;24.750;2024-02-23T00:01:47;99651.53;;;7.64;61.37
32875;BME280;40468;42.128;24.750;2024-02-23T00:03:18;99652.38;;;7.65;61.51
32875;BME280;40468;42.128;24.750;2024-02-23T00:04:50;99649.03;;;7.61;61.69
32875;BME280;40468;42.128;24.750;2024-02-23T00:06:22;99622.38;;;7.34;61.59
32875;BME280;40468;42.128;24.750;2024-02-23T00:07:53;99653.75;;;7.50;61.91
32875;BME280;40468;42.128;24.750;2024-02-23T00:09:26;99654.59;;;7.50;61.99
32875;BME280;40468;42.128;24.750;2024-02-23T00:10:58;99663.16;;;7.52;61.78
32875;BME280;40468;42.128;24.750;2024-02-23T00:12:30;99664.91;;;7.52;61.81
32875;BME280;40468;42.128;24.750;2024-02-23T00:14:02;99657.06;;;7.53;61.74
32875;BME280;40468;42.128;24.750;2024-02-23T00:15:33;99659.78;;;7.50;61.78
32875;BME280;40468;42.128;24.750;2024-02-23T00:17:05;99668.47;;;7.49;61.79
32875;BME280;40468;42.128;24.750;2024-02-23T00:18:36;99660.06;;;7.43;62.00
32875;BME280;40468;42.128;24.750;2024-02-23T00:20:10;99655.88;;;7.39;62.07
32875;BME280;40468;42.128;24.750;2024-02-23T00:21:41;99649.03;;;7.36;62.13
32875;BME280;40468;42.128;24.750;2024-02-23T00:23:13;99649.84;;;7.38;62.22
32875;BME280;40468;42.128;24.750;2024-02-23T00:24:44;99649.00;;;7.38;62.05
32875;BME280;40468;42.128;24.750;2024-02-23T00:26:17;99642.97;;;7.37;61.99
32875;BME280;40468;42.128;24.750;2024-02-23T00:27:48;99640.59;;;7.31;62.15
32875;BME280;40468;42.128;24.750;2024-02-23T00:29:20;99639.91;;;7.26;62.25
32875;BME280;40468;42.128;24.750;2024-02-23T00:30:52;99640.75;;;7.26;62.58
32875;BME280;40468;42.128;24.750;2024-02-23T00:32:24;99641.69;;;7.24;62.69
32875;BME280;40468;42.128;24.750;2024-02-23T00:33:55;99640.91;;;7.22;62.58
32875;BME280;40468;42.128;24.750;2024-02-23T00:35:26;99636.63;;;7.21;62.75
32875;BME280;40468;42.128;24.750;2024-02-23T00:36:57;99638.38;;;7.20;62.75
32875;BME280;40468;42.128;24.750;2024-02-23T00:38:29;99634.94;;;7.20;62.83
32875;BME280;40468;42.128;24.750;2024-02-23T00:40:00;99627.28;;;7.17;62.89
32875;BME280;40468;42.128;24.750;2024-02-23T00:41:33;99637.66;;;7.15;62.72
32875;BME280;40468;42.128;24.750;2024-02-23T00:43:04;99627.47;;;7.11;62.94
32875;BME280;40468;42.128;24.750;2024-02-23T00:44:36;99621.38;;;7.12;63.03
32875;BME280;40468;42.128;24.750;2024-02-23T00:46:07;99622.22;;;7.12;63.04
32875;BME280;40468;42.128;24.750;2024-02-23T00:47:39;99623.06;;;7.13;63.09
32875;BME280;40468;42.128;24.750;2024-02-23T00:49:10;99624.78;;;7.14;63.01
32875;BME280;40468;42.128;24.750;2024-02-23T00:50:42;99631.66;;;7.15;63.32
32875;BME280;40468;42.128;24.750;2024-02-23T00:52:14;99639.47;;;7.13;63.40
32875;BME280;40468;42.128;24.750;2024-02-23T00:53:46;99636.13;;;7.10;63.39
32875;BME280;40468;42.128;24.750;2024-02-23T00:55:17;99632.81;;;7.06;63.55
32875;BME280;40468;42.128;24.750;2024-02-23T00:56:50;99634.50;;;7.07;63.42
32875;BME280;40468;42.128;24.750;2024-02-23T00:58:21;99634.50;;;7.07;63.44
32875;BME280;40468;42.128;24.750;2024-02-23T00:59:53;99619.81;;;7.07;63.36
32875;BME280;40468;42.128;24.750;2024-02-23T01:01:24;99617.06;;;7.12;63.36
32875;BME280;40468;42.128;24.750;2024-02-23T01:02:56;99615.38;;;7.11;63.38
32875;BME280;40468;42.128;24.750;2024-02-23T01:04:30;99617.13;;;7.11;63.15
32875;BME280;40468;42.128;24.750;2024-02-23T01:06:02;99618.06;;;7.08;63.34
32875;BME280;40468;42.128;24.750;2024-02-23T01:07:32;99621.38;;;7.12;63.26
32875;BME280;40468;42.128;24.750;2024-02-23T01:09:04;99617.91;;;7.13;63.31
32875;BME280;40468;42.128;24.750;2024-02-23T01:10:35;99617.06;;;7.12;63.36
32875;BME280;40468;42.128;24.750;2024-02-23T01:12:08;99615.19;;;7.16;63.29
32875;BME280;40468;42.128;24.750;2024-02-23T01:13:39;99616.91;;;7.17;63.29
32875;BME280;40468;42.128;24.750;2024-02-23T01:15:11;99616.84;;;7.18;63.22
32875;BME280;40468;42.128;24.750;2024-02-23T01:16:42;99609.06;;;7.18;63.31
32875;BME280;40468;42.128;24.750;2024-02-23T01:18:14;99609.06;;;7.18;63.18
32875;BME280;40468;42.128;24.750;2024-02-23T01:19:44;99614.25;;;7.18;63.25
32875;BME280;40468;42.128;24.750;2024-02-23T01:21:16;99608.22;;;7.18;63.18
32875;BME280;40468;42.128;24.750;2024-02-23T01:22:47;99604.75;;;7.19;63.17
32875;BME280;40468;42.128;24.750;2024-02-23T01:24:19;99604.69;;;7.20;63.17
32875;BME280;40468;42.128;24.750;2024-02-23T01:25:50;99597.75;;;7.21;63.10
32875;BME280;40468;42.128;24.750;2024-02-23T01:27:23;99597.84;;;7.19;63.30
32875;BME280;40468;42.128;24.750;2024-02-23T01:28:54;99598.78;;;7.17;63.21
32875;BME280;40468;42.128;24.750;2024-02-23T01:30:25;99604.81;;;7.17;63.42
32875;BME280;40468;42.128;24.750;2024-02-23T01:31:57;99608.34;;;7.15;63.40
32875;BME280;40468;42.128;24.750;2024-02-23T01:33:29;99604.19;;;7.11;63.38
32875;BME280;40468;42.128;24.750;2024-02-23T01:35:00;99598.31;;;7.05;63.35
32875;BME280;40468;42.128;24.750;2024-02-23T01:36:32;99598.25;;;7.07;63.66
32875;BME280;40468;42.128;24.750;2024-02-23T01:38:03;99595.72;;;7.05;63.63
32875;BME280;40468;42.128;24.750;2024-02-23T01:39:35;99597.38;;;7.06;63.55
32875;BME280;40468;42.128;24.750;2024-02-23T01:41:06;99543.22;;;6.75;63.68
32875;BME280;40468;42.128;24.750;2024-02-23T01:42:39;99600.78;;;7.09;63.38
32875;BME280;40468;42.128;24.750;2024-02-23T01:44:10;99607.75;;;7.06;63.64
32875;BME280;40468;42.128;24.750;2024-02-23T01:45:42;99600.09;;;7.03;63.61
32875;BME280;40468;42.128;24.750;2024-02-23T01:47:13;99593.25;;;7.01;63.75
32875;BME280;40468;42.128;24.750;2024-02-23T01:48:45;99597.59;;;7.00;63.63
32875;BME280;40468;42.128;24.750;2024-02-23T01:50:16;99595.81;;;7.02;63.60
32875;BME280;40468;42.128;24.750;2024-02-23T01:51:48;99582.16;;;6.97;63.73
32875;BME280;40468;42.128;24.750;2024-02-23T01:53:20;99590.03;;;6.94;63.64
32875;BME280;40468;42.128;24.750;2024-02-23T01:54:52;99586.63;;;6.94;63.83
32875;BME280;40468;42.128;24.750;2024-02-23T01:56:23;99582.25;;;6.96;63.90
32875;BME280;40468;42.128;24.750;2024-02-23T01:57:57;99582.28;;;6.94;63.69
32875;BME280;40468;42.128;24.750;2024-02-23T01:59:29;99584.00;;;6.95;63.75
32875;BME280;40468;42.128;24.750;2024-02-23T02:01:01;99580.50;;;6.96;63.65
32875;BME280;40468;42.128;24.750;2024-02-23T02:02:32;99583.00;;;6.98;63.65
32875;BME280;40468;42.128;24.750;2024-02-23T02:04:04;99587.25;;;7.00;63.56
32875;BME280;40468;42.128;24.750;2024-02-23T02:05:35;99575.09;;;7.02;63.54
32875;BME280;40468;42.128;24.750;2024-02-23T02:07:07;99582.06;;;7.00;63.40
32875;BME280;40468;42.128;24.750;2024-02-23T02:08:38;99580.28;;;7.02;63.35
32875;BME280;40468;42.128;24.750;2024-02-23T02:10:10;99578.59;;;7.01;63.46
32875;BME280;40468;42.128;24.750;2024-02-23T02:11:45;99578.53;;;7.03;63.30
32875;BME280;40468;42.128;24.750;2024-02-23T02:13:19;99582.06;;;7.00;63.39
32875;BME280;40468;42.128;24.750;2024-02-23T02:14:50;99577.09;;;6.94;63.57
32875;BME280;40468;42.128;24.750;2024-02-23T02:16:21;99585.78;;;6.93;63.80
32875;BME280;40468;42.128;24.750;2024-02-23T02:17:53;99583.19;;;6.93;63.71
32875;BME280;40468;42.128;24.750;2024-02-23T02:19:24;99589.31;;;6.91;63.69
32875;BME280;40468;42.128;24.750;2024-02-23T02:20:57;99585.06;;;6.88;63.72
32875;BME280;40468;42.128;24.750;2024-02-23T02:22:27;99577.38;;;6.87;63.89
32875;BME280;40468;42.128;24.750;2024-02-23T02:23:59;99572.22;;;6.85;63.94
32875;BME280;40468;42.128;24.750;2024-02-23T02:25:30;99576.47;;;6.88;63.75
32875;BME280;40468;42.128;24.750;2024-02-23T02:27:02;99579.84;;;6.90;63.82
32875;BME280;40468;42.128;24.750;2024-02-23T02:28:34;99582.44;;;6.90;63.81
32875;BME280;40468;42.128;24.750;2024-02-23T02:30:07;99575.63;;;6.87;63.73
32875;BME280;40468;42.128;24.750;2024-02-23T02:31:38;99579.09;;;6.86;63.71
32875;BME280;40468;42.128;24.750;2024-02-23T02:33:10;99578.22;;;6.87;63.71
32875;BME280;40468;42.128;24.750;2024-02-23T02:34:40;99577.31;;;6.88;63.56
32875;BME280;40468;42.128;24.750;2024-02-23T02:36:12;99580.69;;;6.90;63.53
32875;BME280;40468;42.128;24.750;2024-02-23T02:37:43;99579.09;;;6.86;63.55
32875;BME280;40468;42.128;24.750;2024-02-23T02:39:15;99579.16;;;6.84;63.62
32875;BME280;40468;42.128;24.750;2024-02-23T02:40:46;99578.34;;;6.82;63.74
32875;BME280;40468;42.128;24.750;2024-02-23T02:42:18;99574.94;;;6.82;63.60
32875;BME280;40468;42.128;24.750;2024-02-23T02:43:50;99575.84;;;6.81;63.61
32875;BME280;40468;42.128;24.750;2024-02-23T02:45:22;99580.31;;;6.76;63.59
32875;BME280;40468;42.128;24.750;2024-02-23T02:46:52;99583.13;;;6.68;63.71
32875;BME280;40468;42.128;24.750;2024-02-23T02:48:24;99579.09;;;6.59;63.91
32875;BME280;40468;42.128;24.750;2024-02-23T02:49:55;99584.25;;;6.61;64.08
32875;BME280;40468;42.128;24.750;2024-02-23T02:51:27;99586.84;;;6.61;63.78
32875;BME280;40468;42.128;24.750;2024-02-23T02:52:58;99586.84;;;6.61;63.74
32875;BME280;40468;42.128;24.750;2024-02-23T02:54:29;99587.63;;;6.63;63.72
32875;BME280;40468;42.128;24.750;2024-02-23T02:56:00;99582.59;;;6.58;63.53
32875;BME280;40468;42.128;24.750;2024-02-23T02:57:32;99587.88;;;6.55;63.52
32875;BME280;40468;42.128;24.750;2024-02-23T02:59:04;99580.94;;;6.56;63.57
32875;BME280;40468;42.128;24.750;2024-02-23T03:00:36;99587.03;;;6.55;63.50
32875;BME280;40468;42.128;24.750;2024-02-23T03:02:07;99595.63;;;6.55;63.35
32875;BME280;40468;42.128;24.750;2024-02-23T03:03:39;99594.06;;;6.51;63.21
32875;BME280;40468;42.128;24.750;2024-02-23T03:05:09;99598.47;;;6.48;63.24
32875;BME280;40468;42.128;24.750;2024-02-23T03:06:41;99594.44;;;6.39;63.36
32875;BME280;40468;42.128;24.750;2024-02-23T03:08:12;99586.94;;;6.30;63.57
32875;BME280;40468;42.128;24.750;2024-02-23T03:09:44;99599.28;;;6.22;63.64
32875;BME280;40468;42.128;24.750;2024-02-23T03:11:15;99595.97;;;6.17;63.71
32875;BME280;40468;42.128;24.750;2024-02-23T03:12:46;99596.88;;;6.15;63.75
32875;BME280;40468;42.128;24.750;2024-02-23T03:14:19;99598.56;;;6.17;63.81
32875;BME280;40468;42.128;24.750;2024-02-23T03:15:51;99599.38;;;6.19;63.68
32875;BME280;40468;42.128;24.750;2024-02-23T03:17:22;99595.88;;;6.20;63.61
32875;BME280;40468;42.128;24.750;2024-02-23T03:18:54;99602.00;;;6.17;63.60
32875;BME280;40468;42.128;24.750;2024-02-23T03:20:25;99602.00;;;6.17;63.58
32875;BME280;40468;42.128;24.750;2024-02-23T03:21:57;99609.84;;;6.14;63.58
32875;BME280;40468;42.128;24.750;2024-02-23T03:23:27;99603.88;;;6.12;63.51
32875;BME280;40468;42.128;24.750;2024-02-23T03:25:01;99609.47;;;5.98;63.71
32875;BME280;40468;42.128;24.750;2024-02-23T03:26:38;99611.06;;;6.02;63.68
32875;BME280;40468;42.128;24.750;2024-02-23T03:28:10;99608.56;;;5.99;63.65
32875;BME280;40468;42.128;24.750;2024-02-23T03:29:42;99610.31;;;5.99;63.66
32875;BME280;40468;42.128;24.750;2024-02-23T03:31:14;99609.63;;;5.92;63.62
32875;BME280;40468;42.128;24.750;2024-02-23T03:32:45;99609.72;;;5.89;63.78
32875;BME280;40468;42.128;24.750;2024-02-23T03:34:17;99599.50;;;5.84;63.89
32875;BME280;40468;42.128;24.750;2024-02-23T03:35:48;99608.00;;;5.88;63.84
32875;BME280;40468;42.128;24.750;2024-02-23T03:37:20;99610.66;;;5.85;63.78
32875;BME280;40468;42.128;24.750;2024-02-23T03:38:50;99601.31;;;5.81;63.84
32875;BME280;40468;42.128;24.750;2024-02-23T03:40:23;99603.09;;;5.79;63.86
32875;BME280;40468;42.128;24.750;2024-02-23T03:41:53;99600.50;;;5.79;63.98
32875;BME280;40468;42.128;24.750;2024-02-23T03:43:25;99606.56;;;5.78;63.92
32875;BME280;40468;42.128;24.750;2024-02-23T03:44:57;99603.09;;;5.79;63.98
32875;BME280;40468;42.128;24.750;2024-02-23T03:46:29;99603.94;;;5.79;63.91
32875;BME280;40468;42.128;24.750;2024-02-23T03:48:02;99607.41;;;5.80;63.82
32875;BME280;40468;42.128;24.750;2024-02-23T03:49:35;99606.66;;;5.75;63.92
32875;BME280;40468;42.128;24.750;2024-02-23T03:51:06;99601.44;;;5.76;63.96
32875;BME280;40468;42.128;24.750;2024-02-23T03:52:39;99608.31;;;5.77;63.99
32875;BME280;40468;42.128;24.750;2024-02-23T03:54:11;99606.66;;;5.75;63.99
32875;BME280;40468;42.128;24.750;2024-02-23T03:55:42;99611.03;;;5.73;63.92
32875;BME280;40468;42.128;24.750;2024-02-23T03:57:14;99605.09;;;5.69;64.12
32875;BME280;40468;42.128;24.750;2024-02-23T03:58:45;99608.69;;;5.65;64.16
32875;BME280;40468;42.128;24.750;2024-02-23T04:00:19;99604.47;;;5.61;64.16
32875;BME280;40468;42.128;24.750;2024-02-23T04:01:51;99611.47;;;5.57;64.25
32875;BME280;40468;42.128;24.750;2024-02-23T04:03:23;99609.69;;;5.59;64.32
32875;BME280;40468;42.128;24.750;2024-02-23T04:04:54;99610.63;;;5.57;64.24
32875;BME280;40468;42.128;24.750;2024-02-23T04:06:25;99612.47;;;5.52;64.27
32875;BME280;40468;42.128;24.750;2024-02-23T04:07:56;99607.34;;;5.50;64.44
32875;BME280;40468;42.128;24.750;2024-02-23T04:09:28;99613.31;;;5.52;64.44
32875;BME280;40468;42.128;24.750;2024-02-23T04:11:00;99609.03;;;5.51;64.49
32875;BME280;40468;42.128;24.750;2024-02-23T04:12:31;99609.88;;;5.52;64.40
32875;BME280;40468;42.128;24.750;2024-02-23T04:14:02;99602.13;;;5.52;64.47
32875;BME280;40468;42.128;24.750;2024-02-23T04:15:37;99604.81;;;5.48;64.39
32875;BME280;40468;42.128;24.750;2024-02-23T04:17:08;99602.34;;;5.44;64.57
32875;BME280;40468;42.128;24.750;2024-02-23T04:18:40;99600.75;;;5.40;64.63
32875;BME280;40468;42.128;24.750;2024-02-23T04:20:11;99579.59;;;5.25;64.71
32875;BME280;40468;42.128;24.750;2024-02-23T04:21:42;99602.56;;;5.36;64.86
32875;BME280;40468;42.128;24.750;2024-02-23T04:23:13;99601.66;;;5.37;64.88
32875;BME280;40468;42.128;24.750;2024-02-23T04:24:45;99599.09;;;5.37;64.82
32875;BME280;40468;42.128;24.750;2024-02-23T04:26:16;99603.41;;;5.37;64.93
32875;BME280;40468;42.128;24.750;2024-02-23T04:27:47;99613.75;;;5.35;65.14
32875;BME280;40468;42.128;24.750;2024-02-23T04:29:18;99613.75;;;5.35;64.95
32875;BME280;40468;42.128;24.750;2024-02-23T04:30:51;99608.59;;;5.35;64.97
32875;BME280;40468;42.128;24.750;2024-02-23T04:32:22;99607.75;;;5.35;64.96
32875;BME280;40468;42.128;24.750;2024-02-23T04:33:54;99618.13;;;5.33;65.02
32875;BME280;40468;42.128;24.750;2024-02-23T04:35:25;99615.56;;;5.33;65.15
32875;BME280;40468;42.128;24.750;2024-02-23T04:36:57;99605.41;;;5.25;65.16
32875;BME280;40468;42.128;24.750;2024-02-23T04:38:29;99611.44;;;5.26;65.30
32875;BME280;40468;42.128;24.750;2024-02-23T04:39:59;99606.25;;;5.28;65.37
32875;BME280;40468;42.128;24.750;2024-02-23T04:41:31;99606.19;;;5.29;65.36
32875;BME280;40468;42.128;24.750;2024-02-23T04:43:03;99607.91;;;5.30;65.26
32875;BME280;40468;42.128;24.750;2024-02-23T04:44:34;99606.97;;;5.33;65.25
32875;BME280;40468;42.128;24.750;2024-02-23T04:46:06;99604.38;;;5.33;65.31
32875;BME280;40468;42.128;24.750;2024-02-23T04:47:38;99612.22;;;5.30;65.35
32875;BME280;40468;42.128;24.750;2024-02-23T04:49:10;99612.22;;;5.30;65.49
32875;BME280;40468;42.128;24.750;2024-02-23T04:50:43;99613.84;;;5.32;65.46
32875;BME280;40468;42.128;24.750;2024-02-23T04:52:14;99614.72;;;5.33;65.42
32875;BME280;40468;42.128;24.750;2024-02-23T04:53:46;99614.75;;;5.31;65.47
32875;BME280;40468;42.128;24.750;2024-02-23T04:55:17;99613.94;;;5.29;65.49
32875;BME280;40468;42.128;24.750;2024-02-23T04:56:48;99607.16;;;5.25;65.55
32875;BME280;40468;42.128;24.750;2024-02-23T04:58:20;99602.06;;;5.23;65.60
32875;BME280;40468;42.128;24.750;2024-02-23T04:59:52;99607.13;;;5.27;65.75
32875;BME280;40468;42.128;24.750;2024-02-23T05:01:24;99609.66;;;5.28;65.70
32875;BME280;40468;42.128;24.750;2024-02-23T05:02:56;99620.41;;;5.13;65.85
32875;BME280;40468;42.128;24.750;2024-02-23T05:04:27;99613.50;;;5.13;65.87
32875;BME280;40468;42.128;24.750;2024-02-23T05:05:59;99614.41;;;5.11;66.04
32875;BME280;40468;42.128;24.750;2024-02-23T05:07:30;99611.06;;;5.07;66.20
32875;BME280;40468;42.128;24.750;2024-02-23T05:09:01;99623.25;;;5.02;66.34
32875;BME280;40468;42.128;24.750;2024-02-23T05:10:33;99621.63;;;4.98;66.53
32875;BME280;40468;42.128;24.750;2024-02-23T05:12:05;99615.72;;;4.94;66.67
32875;BME280;40468;42.128;24.750;2024-02-23T05:13:36;99619.13;;;4.95;66.82
32875;BME280;40468;42.128;24.750;2024-02-23T05:15:12;99619.22;;;4.92;66.77
32875;BME280;40468;42.128;24.750;2024-02-23T05:16:44;99630.22;;;4.98;66.91
32875;BME280;40468;42.128;24.750;2024-02-23T05:18:16;99625.13;;;4.97;66.90
32875;BME280;40468;42.128;24.750;2024-02-23T05:19:47;99623.38;;;4.97;66.89
32875;BME280;40468;42.128;24.750;2024-02-23T05:21:19;99631.06;;;4.99;66.97
32875;BME280;40468;42.128;24.750;2024-02-23T05:22:50;99636.13;;;5.04;66.86
32875;BME280;40468;42.128;24.750;2024-02-23T05:24:22;99643.88;;;5.04;66.91
32875;BME280;40468;42.128;24.750;2024-02-23T05:25:54;99638.78;;;5.00;67.01
32875;BME280;40468;42.128;24.750;2024-02-23T05:27:24;99633.69;;;4.97;67.26
32875;BME280;40468;42.128;24.750;2024-02-23T05:28:57;99644.09;;;4.94;67.26
32875;BME280;40468;42.128;24.750;2024-02-23T05:30:28;99643.28;;;4.91;67.41
32875;BME280;40468;42.128;24.750;2024-02-23T05:32:03;99643.38;;;4.88;67.44
32875;BME280;40468;42.128;24.750;2024-02-23T05:33:34;99642.66;;;4.83;67.69
32875;BME280;40468;42.128;24.750;2024-02-23T05:35:06;99646.00;;;4.86;67.78
32875;BME280;40468;42.128;24.750;2024-02-23T05:36:37;99640.88;;;4.85;67.74
32875;BME280;40468;42.128;24.750;2024-02-23T05:38:08;99642.53;;;4.87;67.83
32875;BME280;40468;42.128;24.750;2024-02-23T05:39:39;99636.44;;;4.90;67.75
32875;BME280;40468;42.128;24.750;2024-02-23T05:41:12;99640.69;;;4.92;67.76
32875;BME280;40468;42.128;24.750;2024-02-23T05:42:43;99593.94;;;4.70;67.72
32875;BME280;40468;42.128;24.750;2024-02-23T05:44:14;99644.94;;;4.95;67.75
32875;BME280;40468;42.128;24.750;2024-02-23T05:45:45;99638.06;;;4.94;67.89
32875;BME280;40468;42.128;24.750;2024-02-23T05:47:18;99644.00;;;4.97;68.07
32875;BME280;40468;42.128;24.750;2024-02-23T05:48:51;99652.53;;;4.99;67.92
32875;BME280;40468;42.128;24.750;2024-02-23T05:50:23;99643.88;;;5.02;67.89
32875;BME280;40468;42.128;24.750;2024-02-23T05:51:54;99649.03;;;5.02;67.88
32875;BME280;40468;42.128;24.750;2024-02-23T05:53:26;99649.13;;;4.99;67.90
32875;BME280;40468;42.128;24.750;2024-02-23T05:54:57;99647.38;;;4.99;67.90
32875;BME280;40468;42.128;24.750;2024-02-23T05:56:30;99652.47;;;5.02;67.93
32875;BME280;40468;42.128;24.750;2024-02-23T05:58:01;99659.28;;;5.07;67.81
32875;BME280;40468;42.128;24.750;2024-02-23T05:59:33;99654.09;;;5.07;67.93
32875;BME280;40468;42.128;24.750;2024-02-23T06:01:05;99655.78;;;5.08;67.85
32875;BME280;40468;42.128;24.750;2024-02-23T06:02:39;99656.63;;;5.10;67.83
32875;BME280;40468;42.128;24.750;2024-02-23T06:04:10;99660.03;;;5.10;67.75
32875;BME280;40468;42.128;24.750;2024-02-23T06:05:42;99661.63;;;5.14;67.79
32875;BME280;40468;42.128;24.750;2024-02-23T06:07:15;99669.31;;;5.17;67.68
32875;BME280;40468;42.128;24.750;2024-02-23T06:08:46;99670.03;;;5.22;67.74
32875;BME280;40468;42.128;24.750;2024-02-23T06:10:20;99678.56;;;5.26;67.66
32875;BME280;40468;42.128;24.750;2024-02-23T06:11:51;99679.34;;;5.30;67.73
32875;BME280;40468;42.128;24.750;2024-02-23T06:13:23;99663.06;;;5.26;67.66
32875;BME280;40468;42.128;24.750;2024-02-23T06:14:54;99681.59;;;5.42;67.70
32875;BME280;40468;42.128;24.750;2024-02-23T06:16:27;99688.59;;;5.38;67.64
32875;BME280;40468;42.128;24.750;2024-02-23T06:17:59;99685.72;;;5.49;67.51
32875;BME280;40468;42.128;24.750;2024-02-23T06:19:31;99682.94;;;5.57;67.33
32875;BME280;40468;42.128;24.750;2024-02-23T06:21:02;99684.53;;;5.62;67.28
32875;BME280;40468;42.128;24.750;2024-02-23T06:22:35;99688.69;;;5.66;67.04
32875;BME280;40468;42.128;24.750;2024-02-23T06:24:06;99690.19;;;5.75;67.10
32875;BME280;40468;42.128;24.750;2024-02-23T06:25:39;99690.00;;;5.83;66.96
32875;BME280;40468;42.128;24.750;2024-02-23T06:27:10;99695.72;;;5.94;66.80
32875;BME280;40468;42.128;24.750;2024-02-23T06:28:42;99699.75;;;6.04;66.69
32875;BME280;40468;42.128;24.750;2024-02-23T06:30:15;99693.41;;;6.14;66.48
32875;BME280;40468;42.128;24.750;2024-02-23T06:31:45;99699.19;;;6.24;66.30
32875;BME280;40468;42.128;24.750;2024-02-23T06:33:21;99698.84;;;6.36;66.07
32875;BME280;40468;42.128;24.750;2024-02-23T06:34:52;99698.59;;;6.44;65.88
32875;BME280;40468;42.128;24.750;2024-02-23T06:36:24;99684.78;;;6.45;65.69
32875;BME280;40468;42.128;24.750;2024-02-23T06:37:56;99695.47;;;6.63;65.43
32875;BME280;40468;42.128;24.750;2024-02-23T06:39:28;99694.28;;;6.73;65.32
32875;BME280;40468;42.128;24.750;2024-02-23T06:40:59;99699.88;;;6.87;65.01
32875;BME280;40468;42.128;24.750;2024-02-23T06:42:31;99688.41;;;6.94;64.58
32875;BME280;40468;42.128;24.750;2024-02-23T06:44:02;99693.25;;;7.05;64.46
32875;BME280;40468;42.128;24.750;2024-02-23T06:45:34;99684.38;;;7.12;64.06
32875;BME280;40468;42.128;24.750;2024-02-23T06:47:06;99687.53;;;7.22;63.81
32875;BME280;40468;42.128;24.750;2024-02-23T06:48:39;99683.69;;;7.34;63.63
32875;BME280;40468;42.128;24.750;2024-02-23T06:50:10;99682.47;;;7.44;63.36
32875;BME280;40468;42.128;24.750;2024-02-23T06:51:42;99689.72;;;7.59;62.71
32875;BME280;40468;42.128;24.750;2024-02-23T06:53:13;99684.75;;;7.78;61.93
32875;BME280;40468;42.128;24.750;2024-02-23T06:54:45;99683.97;;;8.00;61.01
32875;BME280;40468;42.128;24.750;2024-02-23T06:56:16;99688.59;;;8.15;60.16
32875;BME280;40468;42.128;24.750;2024-02-23T06:57:48;99688.72;;;8.34;59.89
32875;BME280;40468;42.128;24.750;2024-02-23T06:59:19;99688.25;;;8.48;59.21
32875;BME280;40468;42.128;24.750;2024-02-23T07:00:51;99695.56;;;8.60;59.13
32875;BME280;40468;42.128;24.750;2024-02-23T07:02:22;99684.53;;;8.77;59.17
32875;BME280;40468;42.128;24.750;2024-02-23T07:03:55;99684.72;;;9.15;59.02
32875;BME280;40468;42.128;24.750;2024-02-23T07:05:30;99686.34;;;9.78;57.28
32875;BME280;40468;42.128;24.750;2024-02-23T07:07:01;99679.13;;;10.62;55.77
32875;BME280;40468;42.128;24.750;2024-02-23T07:08:38;99632.66;;;11.24;53.14
32875;BME280;40468;42.128;24.750;2024-02-23T07:10:10;99673.03;;;12.34;51.03
32875;BME280;40468;42.128;24.750;2024-02-23T07:11:42;99680.50;;;13.18;48.94
32875;BME280;40468;42.128;24.750;2024-02-23T07:13:19;99679.16;;;13.71;46.92
32875;BME280;40468;42.128;24.750;2024-02-23T07:14:56;99680.75;;;14.17;45.96
32875;BME280;40468;42.128;24.750;2024-02-23T07:16:29;99682.38;;;14.61;44.77
32875;BME280;40468;42.128;24.750;2024-02-23T07:18:02;99683.44;;;15.25;44.03
32875;BME280;40468;42.128;24.750;2024-02-23T07:19:36;99689.03;;;15.46;43.29
32875;BME280;40468;42.128;24.750;2024-02-23T07:21:09;99682.13;;;15.58;42.07
32875;BME280;40468;42.128;24.750;2024-02-23T07:22:44;99681.63;;;15.65;42.01
32875;BME280;40468;42.128;24.750;2024-02-23T07:24:18;99675.56;;;15.78;41.65
32875;BME280;40468;42.128;24.750;2024-02-23T07:25:50;99675.53;;;15.90;41.22
32875;BME280;40468;42.128;24.750;2024-02-23T07:27:23;99673.13;;;16.13;40.94
32875;BME280;40468;42.128;24.750;2024-02-23T07:28:58;99671.97;;;16.41;40.61
32875;BME280;40468;42.128;24.750;2024-02-23T07:30:30;99670.09;;;16.80;40.01
32875;BME280;40468;42.128;24.750;2024-02-23T07:32:01;99656.13;;;17.15;39.34
32875;BME280;40468;42.128;24.750;2024-02-23T07:33:33;99665.44;;;17.43;38.77
32875;BME280;40468;42.128;24.750;2024-02-23T07:35:05;99659.81;;;17.59;38.58
32875;BME280;40468;42.128;24.750;2024-02-23T07:36:38;99665.75;;;17.85;38.32
32875;BME280;40468;42.128;24.750;2024-02-23T07:38:09;99669.47;;;18.05;37.87
32875;BME280;40468;42.128;24.750;2024-02-23T07:39:41;99660.94;;;18.24;37.39
32875;BME280;40468;42.128;24.750;2024-02-23T07:41:12;99651.22;;;18.47;37.01
32875;BME280;40468;42.128;24.750;2024-02-23T07:42:44;99647.56;;;18.70;36.59
32875;BME280;40468;42.128;24.750;2024-02-23T07:44:16;99653.38;;;18.96;36.56
32875;BME280;40468;42.128;24.750;2024-02-23T07:45:47;99654.69;;;19.23;36.18
32875;BME280;40468;42.128;24.750;2024-02-23T07:47:18;99653.00;;;19.43;35.70
32875;BME280;40468;42.128;24.750;2024-02-23T07:48:50;99647.53;;;19.55;35.22
32875;BME280;40468;42.128;24.750;2024-02-23T07:50:23;99655.63;;;19.64;35.27
32875;BME280;40468;42.128;24.750;2024-02-23T07:51:55;99654.78;;;19.84;34.84
32875;BME280;40468;42.128;24.750;2024-02-23T07:53:26;99652.25;;;20.04;34.63
32875;BME280;40468;42.128;24.750;2024-02-23T07:54:58;99652.69;;;20.18;34.48
32875;BME280;40468;42.128;24.750;2024-02-23T07:56:30;99646.34;;;20.31;34.19
32875;BME280;40468;42.128;24.750;2024-02-23T07:58:03;99642.75;;;20.51;34.03
32875;BME280;40468;42.128;24.750;2024-02-23T07:59:34;99645.19;;;20.74;33.81
32875;BME280;40468;42.128;24.750;2024-02-23T08:01:06;99641.72;;;20.93;33.16
32875;BME280;40468;42.128;24.750;2024-02-23T08:02:37;99655.34;;;20.88;33.42
32875;BME280;40468;42.128;24.750;2024-02-23T08:04:12;99656.19;;;20.69;33.44
32875;BME280;40468;42.128;24.750;2024-02-23T08:05:46;99654.16;;;20.32;33.88